Upstream stations:
Downstream station:
SHEF ID: BRIO2 Canadian River at Bridgeport, OK
STATION TYPE:
Regulating: Stage = 15.00, Flow = 8545
STAGE RIV-FLOW
ft cfs
Ccp-Rev Ccp-Rev
(US/Central)
05/25 00:00 12.60 2190
05/25 01:00 12.59 2176
05/25 02:00 12.57 2146
05/25 03:00 12.57 2146
05/25 04:00 12.54 2103
05/25 05:00 12.53 2089
05/25 06:00 12.50 2046
05/25 07:00 12.48 2018
05/25 08:00 12.60 2190
05/25 09:00 12.84 2565
05/25 10:00 13.13 3073
05/25 11:00 13.10 3018
05/25 12:00 13.09 2999
05/25 13:00 13.06 2945
05/25 14:00 13.03 2891
05/25 15:00 12.96 2768
05/25 16:00 12.92 2699
05/25 17:00 12.88 2631
05/25 18:00 12.86 2598
05/25 19:00 12.77 2451
05/25 20:00 12.67 2295
05/25 21:00 12.62 2220
05/25 22:00 10.71 490
05/25 23:00 ---- ----